Time;durP1;ratioP1;P1;durP2;ratioP2;P2;SDS_P1;SDS_P2;PMS_P1;PMS_P2;Temp;Humidity;BMP_temperature;BMP_pressure;BME280_temperature;BME280_humidity;BME280_pressure;Samples;Min_cycle;Max_cycle;Signal;HPM_P1;HPM_P2
2022/09/13 00:01:23;;;;;;;2.88;2.67;;;;;;;;;;4999834;28;20302;-74
2022/09/13 00:03:48;;;;;;;4.10;2.83;;;;;;;;;;5001028;28;20327;-73
2022/09/13 00:06:15;;;;;;;2.65;2.45;;;;;;;;;;5010522;28;20800;-73
2022/09/13 00:08:43;;;;;;;2.57;2.37;;;;;;;;;;5040310;28;20277;-73
2022/09/13 00:11:22;;;;;;;3.03;2.83;;;;;;;;;;5038257;28;20224;-74
2022/09/13 00:13:52;;;;;;;2.60;2.40;;;;;;;;;;5044448;28;20223;-74
2022/09/13 00:16:23;;;;;;;2.67;2.47;;;;;;;;;;5018219;28;20788;-74
2022/09/13 00:18:52;;;;;;;2.60;2.40;;;;;;;;;;5039756;28;20242;-74
2022/09/13 00:21:18;;;;;;;2.90;2.67;;;;;;;;;;5035450;28;20709;-73
2022/09/13 00:23:51;;;;;;;2.80;2.55;;;;;;;;;;5010671;28;20223;-74
2022/09/13 00:26:27;;;;;;;2.80;2.60;;;;;;;;;;5033681;28;20227;-74
2022/09/13 00:28:55;;;;;;;2.72;2.53;;;;;;;;;;5029721;28;20235;-73
2022/09/13 00:31:25;;;;;;;2.63;2.42;;;;;;;;;;5019840;28;20224;-74
2022/09/13 00:33:59;;;;;;;3.05;2.40;;;;;;;;;;5058323;28;20231;-74
2022/09/13 00:36:25;;;;;;;2.88;2.67;;;;;;;;;;5058099;28;20224;-73
2022/09/13 00:38:50;;;;;;;3.00;2.40;;;;;;;;;;5018568;28;20290;-74
2022/09/13 00:41:17;;;;;;;3.50;2.47;;;;;;;;;;5046887;28;20277;-74
2022/09/13 00:43:44;;;;;;;2.90;2.70;;;;;;;;;;5021443;28;20224;-73
2022/09/13 00:46:38;;;;;;;4.25;2.80;;;;;;;;;;5037378;28;20306;-73
2022/09/13 00:49:33;;;;;;;3.08;2.33;;;;;;;;;;5027456;28;20693;-73
2022/09/13 00:52:00;;;;;;;2.90;2.67;;;;;;;;;;5018979;28;20356;-73
2022/09/13 00:54:30;;;;;;;3.30;2.83;;;;;;;;;;4997255;28;20215;-73
2022/09/13 00:56:58;;;;;;;4.85;2.63;;;;;;;;;;5046553;28;20357;-73
2022/09/13 00:59:27;;;;;;;2.83;2.63;;;;;;;;;;5056955;28;20636;-74
2022/09/13 01:01:54;;;;;;;2.95;2.67;;;;;;;;;;5036279;28;20229;-73
2022/09/13 01:04:22;;;;;;;2.47;2.28;;;;;;;;;;5044061;28;20215;-73
2022/09/13 01:06:50;;;;;;;2.70;2.50;;;;;;;;;;5040695;28;20232;-74
2022/09/13 01:09:16;;;;;;;5.10;2.42;;;;;;;;;;5014335;28;20228;-74
2022/09/13 01:11:49;;;;;;;2.88;2.67;;;;;;;;;;5050799;28;20229;-73
2022/09/13 01:14:17;;;;;;;3.40;2.63;;;;;;;;;;5029394;28;20629;-73
2022/09/13 01:16:43;;;;;;;3.22;2.50;;;;;;;;;;5017195;28;20228;-73
2022/09/13 01:19:11;;;;;;;2.63;2.42;;;;;;;;;;5033454;28;20242;-74
2022/09/13 01:22:04;;;;;;;3.17;2.88;;;;;;;;;;5020845;28;20246;-73
2022/09/13 01:24:33;;;;;;;2.80;2.60;;;;;;;;;;5042250;28;20250;-73
2022/09/13 01:27:34;;;;;;;3.88;2.58;;;;;;;;;;5036547;28;20778;-73
2022/09/13 01:30:17;;;;;;;2.63;2.53;;;;;;;;;;5025313;28;20245;-73
2022/09/13 01:32:53;;;;;;;2.60;2.40;;;;;;;;;;5042073;28;20234;-73
2022/09/13 01:35:47;;;;;;;2.90;2.67;;;;;;;;;;5056659;28;20243;-73
2022/09/13 01:38:38;;;;;;;2.63;2.42;;;;;;;;;;5051744;28;20756;-74
2022/09/13 01:41:31;;;;;;;3.40;2.83;;;;;;;;;;5046891;28;20708;-73
2022/09/13 01:44:18;;;;;;;2.88;2.67;;;;;;;;;;5047761;28;20253;-73
2022/09/13 01:46:50;;;;;;;3.15;2.80;;;;;;;;;;5044639;28;20673;-73
2022/09/13 01:49:19;;;;;;;3.88;3.10;;;;;;;;;;5046111;28;20684;-73
2022/09/13 01:51:58;;;;;;;3.85;3.30;;;;;;;;;;5033495;28;20227;-72
2022/09/13 01:54:56;;;;;;;4.20;3.58;;;;;;;;;;5055101;28;20211;-73
2022/09/13 01:57:47;;;;;;;4.22;3.53;;;;;;;;;;5028368;28;20238;-73
2022/09/13 02:00:18;;;;;;;3.92;3.65;;;;;;;;;;5060039;28;20224;-72
2022/09/13 02:02:46;;;;;;;5.03;4.30;;;;;;;;;;5025189;28;20627;-73
2022/09/13 02:05:32;;;;;;;8.98;4.57;;;;;;;;;;5057150;28;20327;-73
2022/09/13 02:08:07;;;;;;;6.35;5.03;;;;;;;;;;5046908;28;20235;-73
2022/09/13 02:11:03;;;;;;;5.60;5.05;;;;;;;;;;5044560;28;20740;-72
2022/09/13 02:13:36;;;;;;;5.75;5.25;;;;;;;;;;5055364;28;20230;-72
2022/09/13 02:16:07;;;;;;;6.03;5.32;;;;;;;;;;5041949;28;20258;-72
2022/09/13 02:18:42;;;;;;;8.35;5.88;;;;;;;;;;5016707;28;20227;-72
2022/09/13 02:21:16;;;;;;;6.40;5.70;;;;;;;;;;5057950;28;20231;-71
2022/09/13 02:23:54;;;;;;;7.30;6.47;;;;;;;;;;5039422;28;20223;-71
2022/09/13 02:26:23;;;;;;;8.02;7.03;;;;;;;;;;5043364;28;20238;-72
2022/09/13 02:28:51;;;;;;;8.02;7.32;;;;;;;;;;5053995;28;20584;-73
2022/09/13 02:31:19;;;;;;;8.63;7.82;;;;;;;;;;5022055;28;20250;-73
2022/09/13 02:33:53;;;;;;;8.20;7.50;;;;;;;;;;5039614;28;20215;-73
2022/09/13 02:36:29;;;;;;;9.63;8.73;;;;;;;;;;5059575;28;20678;-73
2022/09/13 02:39:09;;;;;;;8.93;8.15;;;;;;;;;;5025261;28;20590;-73
2022/09/13 02:41:56;;;;;;;9.95;8.93;;;;;;;;;;5052407;28;20314;-73
2022/09/13 02:44:29;;;;;;;9.60;8.80;;;;;;;;;;5041474;28;20222;-73
2022/09/13 02:47:04;;;;;;;9.90;9.00;;;;;;;;;;5061854;28;20720;-73
2022/09/13 02:49:33;;;;;;;10.05;9.15;;;;;;;;;;5038368;28;20219;-73
2022/09/13 02:52:10;;;;;;;10.10;9.18;;;;;;;;;;5035688;28;20266;-73
2022/09/13 02:54:48;;;;;;;10.15;9.20;;;;;;;;;;5033363;28;20227;-73
2022/09/13 02:57:22;;;;;;;9.23;8.32;;;;;;;;;;5044637;28;20343;-73
2022/09/13 02:59:48;;;;;;;9.82;9.02;;;;;;;;;;5043880;28;20248;-73
2022/09/13 03:02:18;;;;;;;10.18;9.27;;;;;;;;;;5040971;28;20215;-73
2022/09/13 03:04:45;;;;;;;9.70;8.80;;;;;;;;;;5025399;28;20222;-73
2022/09/13 03:07:15;;;;;;;8.93;8.23;;;;;;;;;;5023757;28;20259;-73
2022/09/13 03:09:52;;;;;;;9.40;8.52;;;;;;;;;;5024019;28;20687;-73
2022/09/13 03:12:54;;;;;;;9.60;8.60;;;;;;;;;;5058265;28;20223;-72
2022/09/13 03:15:46;;;;;;;10.20;9.27;;;;;;;;;;5060163;28;20224;-73
2022/09/13 03:18:36;;;;;;;11.15;10.05;;;;;;;;;;5031719;28;20265;-73
2022/09/13 03:21:20;;;;;;;11.02;9.27;;;;;;;;;;5061200;28;20258;-73
2022/09/13 03:23:53;;;;;;;10.77;9.50;;;;;;;;;;5073122;28;20248;-74
2022/09/13 03:52:03;;;;;;;10.60;9.70;;;;;;;;;;4980040;28;20267;-82
2022/09/13 03:54:31;;;;;;;11.77;10.60;;;;;;;;;;4955818;28;20256;-80
2022/09/13 03:57:09;;;;;;;11.88;10.68;;;;;;;;;;4917412;28;20245;-80
2022/09/13 03:59:37;;;;;;;11.90;10.80;;;;;;;;;;4988701;28;20257;-79
2022/09/13 04:02:08;;;;;;;12.03;10.93;;;;;;;;;;4997075;28;20218;-80
2022/09/13 04:04:34;;;;;;;11.55;10.38;;;;;;;;;;4972532;28;20224;-77
2022/09/13 04:07:03;;;;;;;12.40;11.20;;;;;;;;;;4988990;28;20238;-80
2022/09/13 04:09:31;;;;;;;11.75;10.65;;;;;;;;;;4972978;28;20230;-78
2022/09/13 04:11:57;;;;;;;11.70;10.60;;;;;;;;;;4957787;28;20221;-81
2022/09/13 04:14:25;;;;;;;11.95;10.85;;;;;;;;;;4976600;28;20254;-81
2022/09/13 04:16:52;;;;;;;12.20;11.00;;;;;;;;;;4987400;28;20683;-81
2022/09/13 04:19:18;;;;;;;12.48;11.40;;;;;;;;;;4965844;28;20217;-78
2022/09/13 04:21:47;;;;;;;13.38;12.07;;;;;;;;;;4965049;28;20241;-80
2022/09/13 04:24:13;;;;;;;12.95;11.85;;;;;;;;;;5005781;28;20707;-80
2022/09/13 04:26:38;;;;;;;15.18;13.68;;;;;;;;;;4957787;28;20234;-79
2022/09/13 04:29:06;;;;;;;14.87;13.37;;;;;;;;;;4974678;28;20588;-79
2022/09/13 04:31:31;;;;;;;13.60;12.35;;;;;;;;;;4987947;28;20304;-79
2022/09/13 04:33:58;;;;;;;18.52;12.80;;;;;;;;;;4990108;28;20686;-78
2022/09/13 04:36:30;;;;;;;13.15;11.98;;;;;;;;;;4990726;28;20229;-78
2022/09/13 04:38:57;;;;;;;15.40;13.13;;;;;;;;;;4988205;28;20981;-77
2022/09/13 04:41:25;;;;;;;14.75;11.90;;;;;;;;;;4989902;28;20221;-78
2022/09/13 04:43:53;;;;;;;13.05;11.75;;;;;;;;;;4986962;28;20288;-79
2022/09/13 04:46:22;;;;;;;13.63;12.32;;;;;;;;;;4968910;28;20221;-79
2022/09/13 04:48:50;;;;;;;13.60;12.50;;;;;;;;;;4986709;28;20255;-80
2022/09/13 04:51:16;;;;;;;13.43;12.15;;;;;;;;;;4982456;28;20226;-79
2022/09/13 04:53:44;;;;;;;14.15;12.80;;;;;;;;;;5006079;28;20229;-79
2022/09/13 04:56:14;;;;;;;13.60;12.30;;;;;;;;;;4991779;23;20292;-73
2022/09/13 04:58:40;;;;;;;14.23;12.82;;;;;;;;;;4922234;28;21084;-72
2022/09/13 05:01:09;;;;;;;14.63;13.05;;;;;;;;;;4937343;28;20234;-71
2022/09/13 05:03:37;;;;;;;14.20;12.73;;;;;;;;;;4958914;28;20759;-72
2022/09/13 05:06:12;;;;;;;14.13;12.95;;;;;;;;;;4953208;28;20226;-72
2022/09/13 05:08:43;;;;;;;14.40;13.20;;;;;;;;;;4934892;28;20653;-72
2022/09/13 05:11:11;;;;;;;14.25;12.95;;;;;;;;;;4925871;28;20233;-72
2022/09/13 05:13:41;;;;;;;14.82;13.43;;;;;;;;;;4936170;28;20268;-73
2022/09/13 05:16:09;;;;;;;14.82;13.60;;;;;;;;;;4939666;28;20231;-72
2022/09/13 05:18:37;;;;;;;16.48;14.98;;;;;;;;;;4918353;28;20239;-72
2022/09/13 05:21:03;;;;;;;16.15;14.63;;;;;;;;;;4921978;28;20731;-73
2022/09/13 05:23:34;;;;;;;15.13;13.77;;;;;;;;;;4917506;28;20303;-73
2022/09/13 05:26:03;;;;;;;15.52;14.02;;;;;;;;;;4954489;28;20347;-73
2022/09/13 05:28:30;;;;;;;14.88;13.60;;;;;;;;;;4923277;28;20234;-72
2022/09/13 05:31:19;;;;;;;15.60;14.25;;;;;;;;;;4950850;28;20250;-73
2022/09/13 05:33:51;;;;;;;16.35;14.82;;;;;;;;;;4934225;28;20893;-72
2022/09/13 05:36:17;;;;;;;17.10;15.35;;;;;;;;;;4922169;28;20211;-73
2022/09/13 05:38:45;;;;;;;16.77;15.27;;;;;;;;;;4935192;28;20252;-72
2022/09/13 05:41:13;;;;;;;17.63;16.02;;;;;;;;;;4937657;28;20222;-73
2022/09/13 05:43:40;;;;;;;16.98;15.48;;;;;;;;;;4919820;28;20226;-72
2022/09/13 05:46:13;;;;;;;17.48;15.88;;;;;;;;;;4929646;28;20238;-72
2022/09/13 05:48:39;;;;;;;17.48;15.65;;;;;;;;;;4926470;28;20237;-72
2022/09/13 05:51:25;;;;;;;16.38;14.88;;;;;;;;;;4922681;28;20285;-72
2022/09/13 05:53:51;;;;;;;17.15;15.55;;;;;;;;;;4956727;28;20248;-72
2022/09/13 05:56:26;;;;;;;17.65;15.85;;;;;;;;;;4929803;28;20210;-72
2022/09/13 05:58:54;;;;;;;18.42;16.67;;;;;;;;;;4930313;28;20715;-72
2022/09/13 06:01:29;;;;;;;19.73;17.70;;;;;;;;;;4937683;28;20269;-72
2022/09/13 06:04:00;;;;;;;19.60;17.80;;;;;;;;;;4938472;28;20222;-73
2022/09/13 06:06:30;;;;;;;19.63;17.83;;;;;;;;;;4918154;28;20731;-73
2022/09/13 06:08:56;;;;;;;20.13;18.23;;;;;;;;;;4947064;28;20716;-73
2022/09/13 06:11:22;;;;;;;20.90;19.00;;;;;;;;;;4932188;28;20215;-73
2022/09/13 06:13:52;;;;;;;20.40;18.50;;;;;;;;;;4946797;28;20695;-73
2022/09/13 06:16:24;;;;;;;22.55;20.45;;;;;;;;;;4935627;28;20269;-73
2022/09/13 06:18:52;;;;;;;22.20;19.92;;;;;;;;;;4951055;28;20231;-73
2022/09/13 06:21:19;;;;;;;22.15;20.05;;;;;;;;;;4935332;28;20296;-73
2022/09/13 06:23:49;;;;;;;21.90;19.75;;;;;;;;;;4953960;28;20361;-72
2022/09/13 06:26:18;;;;;;;22.33;20.13;;;;;;;;;;4953180;28;20994;-72
2022/09/13 06:28:54;;;;;;;23.90;21.58;;;;;;;;;;4953230;28;21130;-72
2022/09/13 06:31:21;;;;;;;23.30;20.98;;;;;;;;;;4947549;28;20230;-73
2022/09/13 06:33:48;;;;;;;23.52;21.20;;;;;;;;;;4932811;28;20731;-72
2022/09/13 06:36:18;;;;;;;26.33;23.17;;;;;;;;;;4922356;28;20223;-73
2022/09/13 06:38:47;;;;;;;24.85;22.45;;;;;;;;;;4937287;28;20230;-73
2022/09/13 06:41:22;;;;;;;25.10;22.38;;;;;;;;;;4949222;28;20290;-73
2022/09/13 06:43:53;;;;;;;25.52;22.88;;;;;;;;;;4931637;28;20253;-73
2022/09/13 06:46:23;;;;;;;25.17;22.55;;;;;;;;;;4938072;28;20254;-73
2022/09/13 06:48:51;;;;;;;24.73;22.23;;;;;;;;;;4925102;28;20245;-72
2022/09/13 06:51:18;;;;;;;26.23;23.65;;;;;;;;;;4940186;28;20592;-73
2022/09/13 06:53:45;;;;;;;28.38;24.35;;;;;;;;;;4959621;28;20352;-72
2022/09/13 06:56:13;;;;;;;28.98;25.88;;;;;;;;;;4950993;28;20763;-72
2022/09/13 06:58:40;;;;;;;28.50;25.48;;;;;;;;;;4958030;28;20309;-73
2022/09/13 07:01:10;;;;;;;30.17;27.13;;;;;;;;;;4950681;28;20223;-72
2022/09/13 07:03:42;;;;;;;28.88;25.77;;;;;;;;;;4934098;28;20231;-72
2022/09/13 07:06:18;;;;;;;29.10;25.97;;;;;;;;;;4951299;28;20251;-72
2022/09/13 07:08:44;;;;;;;29.27;26.10;;;;;;;;;;4910293;28;20618;-73
2022/09/13 07:11:10;;;;;;;28.85;25.75;;;;;;;;;;4932312;28;20231;-73
2022/09/13 07:13:36;;;;;;;29.15;26.02;;;;;;;;;;4921196;28;20266;-74
2022/09/13 07:16:03;;;;;;;28.50;25.15;;;;;;;;;;4938204;28;20214;-73
2022/09/13 07:18:29;;;;;;;29.05;25.67;;;;;;;;;;4940151;28;20230;-73
2022/09/13 07:21:04;;;;;;;28.27;25.23;;;;;;;;;;4952100;28;20223;-74
2022/09/13 07:23:35;;;;;;;28.85;25.83;;;;;;;;;;4938584;28;20226;-74
2022/09/13 07:26:01;;;;;;;30.13;26.23;;;;;;;;;;4952327;28;20705;-72
2022/09/13 07:28:28;;;;;;;29.30;25.48;;;;;;;;;;4948696;28;20237;-74
2022/09/13 07:30:54;;;;;;;29.42;25.88;;;;;;;;;;4900943;28;20310;-73
2022/09/13 07:33:19;;;;;;;29.48;26.33;;;;;;;;;;4920554;28;20219;-72
2022/09/13 07:35:47;;;;;;;30.13;27.00;;;;;;;;;;4936987;28;20242;-72
2022/09/13 07:38:13;;;;;;;28.95;25.85;;;;;;;;;;4931056;28;20306;-72
2022/09/13 07:40:40;;;;;;;29.27;25.55;;;;;;;;;;4922486;28;20268;-73
2022/09/13 07:43:06;;;;;;;29.73;26.50;;;;;;;;;;4953343;28;20218;-74
2022/09/13 07:45:33;;;;;;;30.98;27.17;;;;;;;;;;4956540;28;20223;-72
2022/09/13 07:47:58;;;;;;;31.02;27.27;;;;;;;;;;4938756;28;20211;-72
2022/09/13 07:50:26;;;;;;;33.85;27.23;;;;;;;;;;4936896;28;20226;-72
2022/09/13 07:52:51;;;;;;;30.17;26.65;;;;;;;;;;4952690;28;20268;-72
2022/09/13 07:55:17;;;;;;;32.10;27.95;;;;;;;;;;4931976;28;20235;-72
2022/09/13 07:57:42;;;;;;;29.45;26.20;;;;;;;;;;4935535;28;20231;-73
2022/09/13 08:00:11;;;;;;;31.05;27.33;;;;;;;;;;4939178;28;20314;-72
2022/09/13 08:02:37;;;;;;;31.30;26.73;;;;;;;;;;4948208;28;20215;-72
2022/09/13 08:05:05;;;;;;;32.10;27.33;;;;;;;;;;4939216;28;20241;-74
2022/09/13 08:07:31;;;;;;;30.23;27.02;;;;;;;;;;4928343;29;20309;-74
2022/09/13 08:09:57;;;;;;;31.95;27.40;;;;;;;;;;4923638;28;20664;-73
2022/09/13 08:12:23;;;;;;;30.67;27.42;;;;;;;;;;4937778;28;20225;-73
2022/09/13 08:14:48;;;;;;;29.13;25.98;;;;;;;;;;4923438;28;20673;-73
2022/09/13 08:17:14;;;;;;;29.65;24.92;;;;;;;;;;4937645;28;20692;-74
2022/09/13 08:19:39;;;;;;;29.05;25.05;;;;;;;;;;4952183;28;20230;-73
2022/09/13 08:22:07;;;;;;;29.80;25.30;;;;;;;;;;4933009;28;20230;-71
2022/09/13 08:24:40;;;;;;;26.38;23.63;;;;;;;;;;4923076;28;20221;-72
2022/09/13 08:27:05;;;;;;;26.85;23.30;;;;;;;;;;4933766;28;20240;-74
2022/09/13 08:29:31;;;;;;;29.55;25.45;;;;;;;;;;4917983;28;20853;-73
2022/09/13 08:31:58;;;;;;;25.75;23.15;;;;;;;;;;4948358;28;20253;-71
2022/09/13 08:34:24;;;;;;;24.67;22.25;;;;;;;;;;4923731;28;20273;-74
2022/09/13 08:36:52;;;;;;;26.10;23.30;;;;;;;;;;4936049;28;20257;-72
2022/09/13 08:39:17;;;;;;;25.33;22.65;;;;;;;;;;4937649;28;20237;-72
2022/09/13 08:42:00;;;;;;;23.77;21.30;;;;;;;;;;4951454;28;20256;-76
2022/09/13 08:44:31;;;;;;;26.85;22.15;;;;;;;;;;4951344;28;20726;-72
2022/09/13 08:47:07;;;;;;;22.45;20.10;;;;;;;;;;4925836;28;20242;-73
2022/09/13 08:49:37;;;;;;;23.48;20.45;;;;;;;;;;4939325;28;20226;-71
2022/09/13 08:52:14;;;;;;;21.25;19.00;;;;;;;;;;4930969;28;20252;-72
2022/09/13 08:54:40;;;;;;;21.27;19.27;;;;;;;;;;4953438;28;20241;-72
2022/09/13 08:57:10;;;;;;;18.85;17.02;;;;;;;;;;4922668;28;20638;-72
2022/09/13 09:00:07;;;;;;;18.75;16.70;;;;;;;;;;4950988;28;20245;-72
2022/09/13 09:02:47;;;;;;;18.63;16.83;;;;;;;;;;4933622;28;20269;-71
2022/09/13 09:05:16;;;;;;;18.13;16.23;;;;;;;;;;4941716;28;20313;-72
2022/09/13 09:07:51;;;;;;;18.45;15.90;;;;;;;;;;4927936;28;20227;-72
2022/09/13 09:10:32;;;;;;;17.15;15.45;;;;;;;;;;4925921;28;20625;-72
2022/09/13 09:13:13;;;;;;;15.02;13.63;;;;;;;;;;4942816;28;20227;-72
2022/09/13 09:16:02;;;;;;;16.08;13.90;;;;;;;;;;4923577;28;20268;-72
2022/09/13 09:18:31;;;;;;;13.57;12.27;;;;;;;;;;4928667;28;20235;-72
2022/09/13 09:20:58;;;;;;;13.65;12.35;;;;;;;;;;4938508;28;20235;-72
2022/09/13 09:23:39;;;;;;;12.23;11.02;;;;;;;;;;4922975;28;20231;-72
2022/09/13 09:26:16;;;;;;;11.20;10.00;;;;;;;;;;4945348;28;20285;-73
2022/09/13 09:29:17;;;;;;;11.30;10.18;;;;;;;;;;4952569;28;20237;-73
2022/09/13 09:32:08;;;;;;;10.25;9.35;;;;;;;;;;4956087;28;20229;-72
2022/09/13 09:34:46;;;;;;;11.73;10.55;;;;;;;;;;4961431;28;20238;-72
2022/09/13 09:37:29;;;;;;;10.13;9.20;;;;;;;;;;4957726;28;20285;-71
2022/09/13 09:40:01;;;;;;;11.30;10.20;;;;;;;;;;4932273;28;20740;-72
2022/09/13 09:42:32;;;;;;;10.45;9.50;;;;;;;;;;4908284;28;20233;-71
2022/09/13 09:45:05;;;;;;;10.05;9.05;;;;;;;;;;4946793;28;20222;-72
2022/09/13 09:47:42;;;;;;;10.38;9.00;;;;;;;;;;4946011;28;20238;-72
2022/09/13 09:50:11;;;;;;;9.07;8.18;;;;;;;;;;4945350;28;20257;-71
2022/09/13 09:52:56;;;;;;;8.32;7.53;;;;;;;;;;4938141;28;20236;-71
2022/09/13 09:55:33;;;;;;;7.47;6.78;;;;;;;;;;4962144;28;20709;-71
2022/09/13 09:58:07;;;;;;;8.60;7.07;;;;;;;;;;4912443;28;20656;-71
2022/09/13 10:00:38;;;;;;;7.93;7.22;;;;;;;;;;4947545;28;20679;-72
2022/09/13 10:03:04;;;;;;;10.52;7.05;;;;;;;;;;4952392;28;20231;-71
2022/09/13 10:05:31;;;;;;;7.55;6.75;;;;;;;;;;4933094;28;20599;-70
2022/09/13 10:08:01;;;;;;;8.82;8.02;;;;;;;;;;4944604;28;20241;-71
2022/09/13 10:10:42;;;;;;;8.85;7.10;;;;;;;;;;4961469;28;20739;-74
2022/09/13 10:13:17;;;;;;;7.10;6.50;;;;;;;;;;4929076;28;20225;-72
2022/09/13 10:16:03;;;;;;;7.63;6.93;;;;;;;;;;4936673;28;20337;-73
2022/09/13 10:18:29;;;;;;;7.50;6.80;;;;;;;;;;4952465;28;20306;-73
2022/09/13 10:21:01;;;;;;;8.93;7.00;;;;;;;;;;4954372;28;20273;-72
2022/09/13 10:23:27;;;;;;;7.32;6.72;;;;;;;;;;4972906;28;20226;-73
2022/09/13 10:26:06;;;;;;;8.40;6.63;;;;;;;;;;4930607;28;20227;-71
2022/09/13 10:28:43;;;;;;;11.30;7.10;;;;;;;;;;4944579;28;20900;-72
2022/09/13 10:31:11;;;;;;;10.27;6.95;;;;;;;;;;4943499;28;20289;-73
2022/09/13 10:33:38;;;;;;;7.50;6.38;;;;;;;;;;4943233;28;20237;-72
2022/09/13 10:36:13;;;;;;;6.15;5.57;;;;;;;;;;4946706;28;20223;-71
2022/09/13 10:38:40;;;;;;;5.75;4.38;;;;;;;;;;4952938;28;20237;-72
2022/09/13 10:41:10;;;;;;;4.80;3.65;;;;;;;;;;4930396;28;20278;-72
2022/09/13 10:43:36;;;;;;;5.18;3.20;;;;;;;;;;4948971;28;20238;-72
2022/09/13 10:46:03;;;;;;;4.10;2.85;;;;;;;;;;4934660;28;20278;-72
2022/09/13 10:48:30;;;;;;;3.78;2.85;;;;;;;;;;4933355;28;20705;-72
2022/09/13 10:50:59;;;;;;;3.78;2.30;;;;;;;;;;4923617;28;20354;-71
2022/09/13 10:53:35;;;;;;;3.33;2.17;;;;;;;;;;4937578;28;20226;-73
2022/09/13 10:56:01;;;;;;;4.80;2.30;;;;;;;;;;4942891;28;20260;-73
2022/09/13 10:58:27;;;;;;;2.65;2.08;;;;;;;;;;4937035;28;20772;-71
2022/09/13 11:01:31;;;;;;;2.80;2.08;;;;;;;;;;4951654;28;20238;-71
2022/09/13 11:04:39;;;;;;;6.00;2.10;;;;;;;;;;4945812;28;20242;-71
2022/09/13 11:07:41;;;;;;;2.83;1.60;;;;;;;;;;4931613;28;20792;-71
2022/09/13 11:10:18;;;;;;;5.28;1.92;;;;;;;;;;4939197;28;20265;-72
2022/09/13 11:12:59;;;;;;;3.63;1.55;;;;;;;;;;4955900;28;20218;-73
2022/09/13 11:15:30;;;;;;;4.25;1.70;;;;;;;;;;4966630;28;20226;-72
2022/09/13 11:18:20;;;;;;;2.55;1.73;;;;;;;;;;4954580;28;20254;-71
2022/09/13 11:21:06;;;;;;;2.83;1.50;;;;;;;;;;4957886;28;20231;-72
2022/09/13 11:24:09;;;;;;;4.72;1.63;;;;;;;;;;4955546;28;20222;-72
2022/09/13 11:26:40;;;;;;;5.60;1.38;;;;;;;;;;4952837;28;20287;-71
2022/09/13 11:29:19;;;;;;;2.25;1.40;;;;;;;;;;4954066;28;20281;-72
2022/09/13 11:32:14;;;;;;;3.53;1.90;;;;;;;;;;4952716;28;20777;-72
2022/09/13 11:34:50;;;;;;;3.35;1.23;;;;;;;;;;4939357;28;20802;-71
2022/09/13 11:37:49;;;;;;;5.85;1.52;;;;;;;;;;4956666;28;20850;-72
2022/09/13 11:40:44;;;;;;;2.50;1.33;;;;;;;;;;4933827;28;20238;-72
2022/09/13 11:43:19;;;;;;;2.40;1.15;;;;;;;;;;4932106;28;20226;-71
2022/09/13 11:46:25;;;;;;;3.17;1.30;;;;;;;;;;4952710;28;20230;-72
2022/09/13 11:49:19;;;;;;;7.35;1.80;;;;;;;;;;4954802;28;20371;-69
2022/09/13 11:51:57;;;;;;;2.15;1.23;;;;;;;;;;4937789;28;20258;-71
2022/09/13 11:54:29;;;;;;;2.75;1.30;;;;;;;;;;4935557;28;21149;-72
2022/09/13 11:56:57;;;;;;;3.97;1.27;;;;;;;;;;4950851;28;20306;-73
2022/09/13 11:59:59;;;;;;;2.78;1.10;;;;;;;;;;4938806;28;20238;-72
2022/09/13 12:02:42;;;;;;;2.80;1.00;;;;;;;;;;4910323;29;20696;-71
2022/09/13 12:05:31;;;;;;;1.80;0.80;;;;;;;;;;4933038;28;20255;-72
2022/09/13 12:08:09;;;;;;;2.60;1.10;;;;;;;;;;4920401;28;20248;-72
2022/09/13 12:10:47;;;;;;;2.10;0.75;;;;;;;;;;4921940;28;20231;-71
2022/09/13 12:13:19;;;;;;;1.90;0.93;;;;;;;;;;4966341;28;20558;-72
2022/09/13 12:15:45;;;;;;;3.78;0.85;;;;;;;;;;4919496;28;20744;-73
2022/09/13 12:18:17;;;;;;;1.67;0.82;;;;;;;;;;4921565;28;20226;-73
2022/09/13 12:20:48;;;;;;;1.27;0.63;;;;;;;;;;4907650;28;20272;-72
2022/09/13 12:23:29;;;;;;;1.73;0.85;;;;;;;;;;4902992;28;20235;-72
2022/09/13 12:26:12;;;;;;;1.95;0.80;;;;;;;;;;4939998;28;20626;-73
2022/09/13 12:28:45;;;;;;;3.13;1.10;;;;;;;;;;4934270;28;20261;-73
2022/09/13 12:31:18;;;;;;;2.17;0.90;;;;;;;;;;4910496;28;20227;-72
2022/09/13 12:33:44;;;;;;;2.70;0.90;;;;;;;;;;4932011;28;20226;-73
2022/09/13 12:36:16;;;;;;;1.50;0.80;;;;;;;;;;4937873;28;20276;-73
2022/09/13 12:39:20;;;;;;;2.00;0.93;;;;;;;;;;4954837;28;20249;-72
2022/09/13 12:42:05;;;;;;;2.13;0.93;;;;;;;;;;4950206;28;20336;-73
2022/09/13 12:45:04;;;;;;;2.97;0.90;;;;;;;;;;4936016;28;20227;-71
2022/09/13 12:47:52;;;;;;;4.10;1.02;;;;;;;;;;4964384;28;20381;-71
2022/09/13 12:50:36;;;;;;;2.85;0.90;;;;;;;;;;4949425;28;20237;-71
2022/09/13 12:53:10;;;;;;;4.72;1.10;;;;;;;;;;4949430;28;20226;-72
2022/09/13 12:55:51;;;;;;;3.08;0.90;;;;;;;;;;4954810;28;20226;-71
2022/09/13 12:58:33;;;;;;;3.03;1.00;;;;;;;;;;4919094;28;20282;-72
2022/09/13 13:01:18;;;;;;;2.20;0.80;;;;;;;;;;4935565;28;20647;-72
2022/09/13 13:04:22;;;;;;;5.88;1.10;;;;;;;;;;4937101;28;20226;-71
2022/09/13 13:06:59;;;;;;;3.03;1.10;;;;;;;;;;4899769;29;20680;-71
2022/09/13 13:09:42;;;;;;;2.95;0.95;;;;;;;;;;4933232;28;20294;-72
2022/09/13 13:12:09;;;;;;;3.25;0.75;;;;;;;;;;4933798;28;20290;-72
2022/09/13 13:14:37;;;;;;;2.10;0.98;;;;;;;;;;4921577;28;20741;-73
2022/09/13 13:17:36;;;;;;;3.03;0.90;;;;;;;;;;4954019;28;20318;-72
2022/09/13 13:20:39;;;;;;;3.50;0.95;;;;;;;;;;4951116;28;20234;-73
2022/09/13 13:23:33;;;;;;;4.63;1.20;;;;;;;;;;4967796;28;20241;-72
2022/09/13 13:26:20;;;;;;;5.75;1.10;;;;;;;;;;4935179;28;20785;-73
2022/09/13 13:28:46;;;;;;;2.35;1.02;;;;;;;;;;4952106;28;20318;-72
2022/09/13 13:31:20;;;;;;;2.88;1.10;;;;;;;;;;4936007;28;20756;-73
2022/09/13 13:33:54;;;;;;;1.15;0.70;;;;;;;;;;4961946;28;20297;-73
2022/09/13 13:36:31;;;;;;;3.28;1.00;;;;;;;;;;4940051;28;20607;-72
2022/09/13 13:39:00;;;;;;;1.70;0.80;;;;;;;;;;4923627;28;20741;-72
2022/09/13 13:41:39;;;;;;;2.58;1.10;;;;;;;;;;4943492;28;20235;-72
2022/09/13 13:44:20;;;;;;;2.90;1.00;;;;;;;;;;4970684;28;20235;-74
2022/09/13 13:46:49;;;;;;;3.25;0.95;;;;;;;;;;4956374;28;20340;-73
2022/09/13 13:49:29;;;;;;;1.33;0.63;;;;;;;;;;4925669;28;20717;-71
2022/09/13 13:52:06;;;;;;;1.58;0.90;;;;;;;;;;4954640;28;20239;-72
2022/09/13 13:54:59;;;;;;;4.03;1.08;;;;;;;;;;4957267;28;20284;-71
2022/09/13 13:57:24;;;;;;;3.60;1.15;;;;;;;;;;4924525;28;20223;-72
2022/09/13 13:59:54;;;;;;;2.97;1.00;;;;;;;;;;4957858;28;20256;-74
2022/09/13 14:02:22;;;;;;;2.97;1.17;;;;;;;;;;4933685;28;20229;-71
2022/09/13 14:05:00;;;;;;;3.50;1.05;;;;;;;;;;4923237;28;20238;-71
2022/09/13 14:07:28;;;;;;;3.47;1.20;;;;;;;;;;4954320;28;20747;-70
2022/09/13 14:10:12;;;;;;;1.95;0.70;;;;;;;;;;4960397;28;20233;-73
2022/09/13 14:12:45;;;;;;;2.40;1.00;;;;;;;;;;4930548;29;20266;-71
2022/09/13 14:15:38;;;;;;;3.83;1.08;;;;;;;;;;4953448;28;21059;-72
2022/09/13 14:18:28;;;;;;;7.25;0.88;;;;;;;;;;4949835;28;20245;-72
2022/09/13 14:21:06;;;;;;;3.65;1.10;;;;;;;;;;4954275;28;20227;-71
2022/09/13 14:23:34;;;;;;;2.67;1.10;;;;;;;;;;4911293;28;20317;-72
2022/09/13 14:26:02;;;;;;;2.50;1.05;;;;;;;;;;4948225;28;20227;-72
2022/09/13 14:28:27;;;;;;;5.05;1.10;;;;;;;;;;4922516;29;20281;-73
2022/09/13 14:30:57;;;;;;;3.80;0.80;;;;;;;;;;4929422;28;20226;-73
2022/09/13 14:33:32;;;;;;;4.88;1.00;;;;;;;;;;4933756;28;20781;-72
2022/09/13 14:36:26;;;;;;;2.13;0.90;;;;;;;;;;4938674;28;20250;-72
2022/09/13 14:39:01;;;;;;;1.63;1.00;;;;;;;;;;4939159;28;20227;-72
2022/09/13 14:41:34;;;;;;;2.78;0.82;;;;;;;;;;4954094;28;20714;-72
2022/09/13 14:44:17;;;;;;;2.28;0.80;;;;;;;;;;4944024;28;20604;-72
2022/09/13 14:46:46;;;;;;;2.63;0.90;;;;;;;;;;4937463;28;20349;-72
2022/09/13 14:49:23;;;;;;;7.05;1.33;;;;;;;;;;4921754;28;20313;-73
2022/09/13 14:52:00;;;;;;;2.40;1.10;;;;;;;;;;4938110;28;20226;-73
2022/09/13 14:54:32;;;;;;;4.15;1.10;;;;;;;;;;4926720;28;20226;-73
2022/09/13 14:56:59;;;;;;;4.03;1.13;;;;;;;;;;4939788;28;20309;-73
2022/09/13 14:59:28;;;;;;;1.85;0.90;;;;;;;;;;4925597;28;20229;-71
2022/09/13 15:01:59;;;;;;;1.98;0.80;;;;;;;;;;4954579;28;20317;-71
2022/09/13 15:04:24;;;;;;;3.45;0.95;;;;;;;;;;4923528;28;20218;-71
2022/09/13 15:07:07;;;;;;;2.00;0.85;;;;;;;;;;4926582;28;20300;-71
2022/09/13 15:09:36;;;;;;;2.92;1.00;;;;;;;;;;4921899;28;20242;-73
2022/09/13 15:12:02;;;;;;;3.75;1.15;;;;;;;;;;4915781;28;20274;-72
2022/09/13 15:14:31;;;;;;;4.47;1.10;;;;;;;;;;4922699;28;20235;-71
2022/09/13 15:17:05;;;;;;;3.50;0.95;;;;;;;;;;4955149;28;20245;-72
2022/09/13 15:19:47;;;;;;;4.65;1.30;;;;;;;;;;4937853;28;20284;-71
2022/09/13 15:22:28;;;;;;;2.38;0.95;;;;;;;;;;4947230;28;20223;-70
2022/09/13 15:24:58;;;;;;;3.22;1.00;;;;;;;;;;4955059;28;20268;-72
2022/09/13 15:27:30;;;;;;;5.47;1.00;;;;;;;;;;4941009;28;20876;-72
2022/09/13 15:30:07;;;;;;;1.95;0.80;;;;;;;;;;4929043;28;20231;-71
2022/09/13 15:32:42;;;;;;;2.90;1.02;;;;;;;;;;4936265;28;21109;-71
2022/09/13 15:35:29;;;;;;;3.30;0.90;;;;;;;;;;4935802;28;20309;-72
2022/09/13 15:38:09;;;;;;;2.65;0.98;;;;;;;;;;4944368;28;20611;-72
2022/09/13 15:40:45;;;;;;;3.75;0.90;;;;;;;;;;4938691;28;20237;-72